CheckWX is a tool to help pilots better visualize weather data.  It is not intended as a substitute for an official pre-flight weather briefing.

13:20:39 UTC

KRAC METAR
Batten International Airport
Racine, Wisconsin, USA
Current

28 mins ago

KRAC 211253Z AUTO 18006KT 10SM CLR 22/19 A3008 RMK AO2 SLP184 T02220194
Observed
Sep-21 @ 12:53 UTC
Wind
  • 180° at 6 KTS
Visibility
10 SM
Flight Rules
VFR
Cloud Levels
  • Clear skies
Temperature
22°C / 72°F
Dewpoint
19°C / 66°F
Humidity
83%
Altimeter
30.08" Hg
Pressure
1018.62 hPa
Previous

1 hour ago

KRAC 211153Z AUTO 18005KT 9SM CLR 21/19 A3009 RMK AO2 SLP186 T02110189 10222 20206 50001
Observed
Sep-21 @ 11:53 UTC
Wind
  • 180° at 5 KTS
Visibility
9 SM
Flight Rules
VFR
Cloud Levels
  • Clear skies
Temperature
21°C / 70°F
Dewpoint
19°C / 66°F
Humidity
88%
Altimeter
30.09" Hg
Pressure
1018.92 hPa
Previous

2 hours ago

KRAC 211053Z AUTO 20005KT 10SM CLR 22/19 A3009 RMK AO2 SLP186 T02170189
Observed
Sep-21 @ 10:53 UTC
Wind
  • 200° at 5 KTS
Visibility
10 SM
Flight Rules
VFR
Cloud Levels
  • Clear skies
Temperature
22°C / 72°F
Dewpoint
19°C / 66°F
Humidity
83%
Altimeter
30.09" Hg
Pressure
1018.92 hPa